Overview Statistics Trail Chart Weather Telemetry Raw packets
 

This is the latest recevied weather packets stored in our database for station/object SP2CDN-10. If no packets are shown the sender has not sent any weather packets the latest 10 day(s).

<< 3 4 5 6 7 8 9 >>
Time Temp. Humidity Pressure Rain* Wind** Luminosity Snow
1788434573 23.89° C 44% 1015.2 hPa - - - -
1788432291 23.89° C 44% 1015.4 hPa - - - -
1788430009 22.78° C 45% 1015.8 hPa - - - -
1788427732 22.78° C 49% 1016 hPa - - - -
1788425445 21.67° C 51% 1016.3 hPa - - - -
1788423164 21.11° C 61% 1016.5 hPa - - - -
1788420880 19.44° C 68% 1016.6 hPa - - - -
1788418604 21.67° C 60% 1016.5 hPa - - - -
1788416320 16.11° C 80% 1016.7 hPa - - - -
1788414040 15° C 94% 1016.6 hPa - - - -
1788412663 13.89° C 100% 1016.6 hPa - - - -
1788410382 12.78° C 100% 1016.7 hPa - - - -
1788408100 12.22° C 100% 1016.9 hPa - - - -
1788405819 12.22° C 100% 1016.9 hPa - - - -
1788403537 12.78° C 100% 1017 hPa - - - -
1788401256 12.78° C 99% 1017.1 hPa - - - -
1788398974 13.33° C 99% 1017.1 hPa - - - -
1788396693 13.33° C 99% 1017.2 hPa - - - -
1788394411 13.89° C 95% 1016.9 hPa - - - -
1788392129 14.44° C 94% 1017 hPa - - - -
1788389847 15° C 90% 1017 hPa - - - -
1788387566 15.56° C 89% 1017.1 hPa - - - -
1788385284 14.44° C 88% 1017.2 hPa - - - -
1788380721 16.67° C 78% 1017.2 hPa - - - -
1788378440 17.78° C 74% 1017.2 hPa - - - -

* Rain since midnight (hover to see other rain measurements)
** Current wind speed in m/s (hover to see current wind gust speed)